Time;durP1;ratioP1;P1;durP2;ratioP2;P2;SDS_P1;SDS_P2;PMS_P1;PMS_P2;Temp;Humidity;BMP_temperature;BMP_pressure;BME280_temperature;BME280_humidity;BME280_pressure;Samples;Min_cycle;Max_cycle;Signal;HPM_P1;HPM_P2
2021/01/04 00:05:31;;;;;;;52.37;30.63;;;;;;;0.60;86.05;99362.55;496674;1141;65502;-72
2021/01/04 00:15:42;;;;;;;52.80;30.90;;;;;;;0.48;86.40;99356.83;493660;1141;65259;-73
2021/01/04 00:25:54;;;;;;;56.73;31.13;;;;;;;0.35;86.64;99355.45;496905;1141;65321;-74
2021/01/04 00:36:01;;;;;;;65.67;33.37;;;;;;;0.23;86.51;99356.60;496992;1141;65578;-74
2021/01/04 00:46:06;;;;;;;57.70;32.33;;;;;;;0.20;86.66;99361.85;494937;1141;65519;-74
2021/01/04 00:56:23;;;;;;;54.15;30.00;;;;;;;0.13;87.14;99372.34;494339;1141;65326;-74
2021/01/04 01:06:35;;;;;;;53.57;31.30;;;;;;;0.22;86.85;99379.02;493429;1141;65206;-73
2021/01/04 01:17:12;;;;;;;54.17;34.07;;;;;;;0.17;86.82;99367.93;493439;1141;65205;-69
2021/01/04 01:27:32;;;;;;;;;;;;;;;0.13;87.65;99367.19;493427;1141;65108;-68
2021/01/04 01:37:59;;;;;;;56.23;31.00;;;;;;;0.15;87.22;99361.13;493898;1141;65446;-69
2021/01/04 01:48:08;;;;;;;51.40;28.10;;;;;;;0.20;87.95;99362.72;493762;1141;65491;-69
2021/01/04 01:58:47;;;;;;;55.00;31.93;;;;;;;0.17;87.78;99355.02;493647;1141;65181;-66
2021/01/04 02:08:57;;;;;;;55.75;29.25;;;;;;;0.26;87.17;99353.96;494233;1141;65174;-69
2021/01/04 02:19:13;;;;;;;59.25;32.80;;;;;;;0.30;87.81;99354.73;493904;1141;65187;-69
2021/01/04 02:29:19;;;;;;;53.53;30.63;;;;;;;0.38;87.37;99338.14;494246;1141;65152;-69
2021/01/04 02:39:30;;;;;;;60.33;30.83;;;;;;;0.41;87.89;99353.56;494044;1141;65481;-67
2021/01/04 02:49:44;;;;;;;52.60;29.33;;;;;;;0.41;88.32;99347.56;494078;1141;65155;-68
2021/01/04 02:59:52;;;;;;;63.10;32.40;;;;;;;0.45;87.66;99346.58;494123;1143;65094;-68
2021/01/04 03:09:59;;;;;;;55.53;29.93;;;;;;;0.38;87.59;99345.03;494022;1143;65197;-69
2021/01/04 03:20:08;;;;;;;57.70;28.62;;;;;;;0.39;87.76;99345.00;494109;1141;65112;-68
2021/01/04 03:30:14;;;;;;;55.10;30.40;;;;;;;0.47;88.13;99336.22;494319;1142;65132;-70
2021/01/04 03:40:19;;;;;;;56.75;30.90;;;;;;;0.45;88.47;99336.25;494198;1141;65120;-69
2021/01/04 03:50:23;;;;;;;51.37;27.67;;;;;;;0.51;88.38;99345.57;493640;1141;65558;-68
2021/01/04 04:00:27;;;;;;;46.03;28.73;;;;;;;0.45;87.66;99359.50;493672;1141;65140;-71
2021/01/04 04:10:31;;;;;;;55.10;30.55;;;;;;;0.41;87.95;99361.31;494071;1141;65201;-68
2021/01/04 04:20:35;;;;;;;54.27;29.03;;;;;;;0.38;87.91;99379.48;493540;1141;65111;-68
2021/01/04 04:30:39;;;;;;;49.05;27.05;;;;;;;0.41;87.65;99373.39;493069;1141;65465;-67
2021/01/04 04:40:49;;;;;;;53.10;27.50;;;;;;;0.37;88.22;99369.17;493665;1141;65898;-70
2021/01/04 04:51:20;;;;;;;57.45;29.50;;;;;;;0.35;87.55;99369.23;494130;1141;65212;-68
2021/01/04 05:01:43;;;;;;;55.00;27.20;;;;;;;0.25;87.97;99353.10;494296;1141;65198;-68
2021/01/04 05:12:01;;;;;;;51.77;29.03;;;;;;;0.30;88.17;99377.98;494423;1141;65581;-70
2021/01/04 05:22:31;;;;;;;56.07;33.30;;;;;;;0.43;88.24;99379.36;494485;1141;65206;-68
2021/01/04 05:32:54;;;;;;;52.43;29.17;;;;;;;0.43;88.45;99399.17;494397;1141;65134;-67
2021/01/04 05:43:09;;;;;;;57.27;30.17;;;;;;;0.49;88.83;99378.36;493909;1143;65941;-68
2021/01/04 05:53:13;;;;;;;51.50;27.77;;;;;;;0.60;88.21;99384.09;493808;1141;65892;-68
2021/01/04 06:03:19;;;;;;;53.77;28.43;;;;;;;0.68;87.66;99396.80;493919;1141;65342;-68
2021/01/04 06:13:23;;;;;;;52.67;28.93;;;;;;;0.72;87.63;99402.74;493677;1141;65969;-69
2021/01/04 06:23:31;;;;;;;48.75;26.55;;;;;;;0.67;87.87;99420.95;494143;1141;65133;-67
2021/01/04 06:33:35;;;;;;;46.40;27.47;;;;;;;0.72;88.21;99419.08;494273;1142;65324;-69
2021/01/04 06:43:39;;;;;;;56.30;29.13;;;;;;;0.74;88.58;99432.81;494060;1141;65177;-69
2021/01/04 06:54:05;;;;;;;54.30;29.95;;;;;;;0.72;88.12;99431.17;493963;1141;65207;-68
2021/01/04 07:04:26;;;;;;;57.10;32.47;;;;;;;0.67;88.05;99423.54;493835;1143;65229;-68
2021/01/04 07:14:54;;;;;;;52.67;28.23;;;;;;;0.66;88.44;99424.43;493795;1141;65464;-68
2021/01/04 07:25:12;;;;;;;47.70;27.90;;;;;;;0.75;87.72;99425.92;493697;1141;65108;-68
2021/01/04 07:35:20;;;;;;;51.27;29.90;;;;;;;0.73;88.17;99418.19;493795;1141;65104;-64
2021/01/04 07:45:53;;;;;;;52.80;29.07;;;;;;;0.76;88.11;99407.80;493677;1141;65172;-64
2021/01/04 07:56:23;;;;;;;48.97;27.70;;;;;;;0.66;88.04;99419.27;493984;1141;65108;-64
2021/01/04 08:06:58;;;;;;;45.73;23.60;;;;;;;0.72;88.83;99428.59;494114;1141;65136;-67
2021/01/04 08:17:11;;;;;;;47.43;27.70;;;;;;;1.00;88.91;99428.70;494314;1141;65177;-63
2021/01/04 08:27:37;;;;;;;53.33;26.20;;;;;;;1.26;88.36;99445.23;493611;1141;65209;-61
2021/01/04 08:37:45;;;;;;;40.13;24.43;;;;;;;1.33;88.30;99459.70;493790;1141;65187;-66
2021/01/04 08:47:51;;;;;;;42.53;25.03;;;;;;;1.36;87.99;99485.48;494060;1141;65208;-63
2021/01/04 08:57:56;;;;;;;42.37;23.80;;;;;;;1.48;88.18;99486.86;494334;1141;65152;-61
2021/01/04 09:08:01;;;;;;;52.03;28.40;;;;;;;1.42;88.48;99501.71;494251;1141;65130;-63
2021/01/04 09:18:22;;;;;;;46.40;24.65;;;;;;;1.51;88.11;99507.50;493860;1141;65134;-61
2021/01/04 09:28:29;;;;;;;50.10;26.37;;;;;;;1.47;88.33;99516.22;493364;1141;65263;-61
2021/01/04 09:38:33;;;;;;;57.37;31.00;;;;;;;1.42;88.38;99514.65;493711;1141;65607;-65
2021/01/04 09:48:43;;;;;;;56.77;29.17;;;;;;;1.35;88.31;99507.07;493809;1141;65185;-64
2021/01/04 09:58:48;;;;;;;61.70;32.15;;;;;;;1.36;88.28;99519.11;485337;1141;10001368;-66
2021/01/04 10:08:53;;;;;;;55.80;27.20;;;;;;;1.37;88.46;99514.77;493621;1141;66080;-64
2021/01/04 10:19:03;;;;;;;51.80;27.73;;;;;;;1.32;88.46;99489.02;493725;1141;65475;-62
2021/01/04 10:29:08;;;;;;;55.30;28.93;;;;;;;1.30;88.36;99488.22;493475;1141;65587;-65
2021/01/04 10:39:20;;;;;;;49.87;27.73;;;;;;;1.35;88.27;99464.81;493400;1141;65487;-65
2021/01/04 10:49:28;;;;;;;50.90;29.00;;;;;;;1.52;88.24;99464.33;493464;1141;65169;-65
2021/01/04 10:59:42;;;;;;;46.20;27.50;;;;;;;1.62;87.93;99444.23;493653;1141;65204;-64
2021/01/04 11:09:47;;;;;;;53.77;30.00;;;;;;;1.76;87.77;99454.15;493396;1142;65204;-66
2021/01/04 11:19:52;;;;;;;51.73;29.47;;;;;;;1.91;87.97;99445.08;493615;1142;65118;-64
2021/01/04 11:29:55;;;;;;;45.55;27.60;;;;;;;2.04;87.69;99436.02;493027;1142;65149;-63
2021/01/04 11:40:00;;;;;;;43.53;23.67;;;;;;;2.13;87.48;99427.11;494212;1142;65600;-63
2021/01/04 11:50:07;;;;;;;46.00;28.57;;;;;;;2.22;87.53;99423.40;493683;1142;65114;-62
2021/01/04 12:00:14;;;;;;;34.13;21.23;;;;;;;2.16;87.09;99420.98;493903;1141;65635;-65
2021/01/04 12:10:20;;;;;;;45.87;26.43;;;;;;;2.26;87.61;99418.97;493442;1141;65102;-63
2021/01/04 12:20:24;;;;;;;47.10;29.43;;;;;;;2.27;87.61;99418.07;494213;1141;65308;-65
2021/01/04 12:30:28;;;;;;;44.30;25.33;;;;;;;2.24;87.31;99421.59;493731;1141;65191;-61
2021/01/04 12:40:34;;;;;;;50.27;28.83;;;;;;;2.21;87.57;99409.58;493157;1141;65076;-63
2021/01/04 12:50:38;;;;;;;56.53;32.00;;;;;;;2.27;87.67;99428.44;493483;1141;65367;-58
2021/01/04 13:00:42;;;;;;;45.80;26.93;;;;;;;2.16;87.70;99421.85;493697;1141;65133;-58
2021/01/04 13:10:46;;;;;;;52.90;29.30;;;;;;;2.07;87.48;99435.92;493458;1141;65487;-65
2021/01/04 13:20:50;;;;;;;45.10;25.10;;;;;;;2.10;87.50;99437.58;493646;1141;65113;-65
2021/01/04 13:30:54;;;;;;;48.33;27.83;;;;;;;2.04;87.58;99445.55;493782;1141;65204;-63
2021/01/04 13:41:01;;;;;;;45.77;26.57;;;;;;;1.95;87.92;99450.12;493424;1141;66161;-61
2021/01/04 13:51:06;;;;;;;65.22;33.58;;;;;;;1.86;87.74;99452.15;493327;1141;65130;-60
2021/01/04 14:01:12;;;;;;;52.37;27.70;;;;;;;1.84;88.16;99446.14;493959;1141;65242;-61
2021/01/04 14:11:19;;;;;;;54.13;28.70;;;;;;;1.74;88.43;99461.98;493631;1141;65136;-65
2021/01/04 14:21:24;;;;;;;59.15;32.08;;;;;;;1.70;88.75;99456.94;493518;1141;65194;-65
2021/01/04 14:31:39;;;;;;;52.10;26.57;;;;;;;1.68;89.14;99455.25;494123;1141;65133;-69
2021/01/04 14:41:42;;;;;;;56.43;29.37;;;;;;;1.60;88.88;99451.16;494363;1141;65124;-64
2021/01/04 14:51:49;;;;;;;68.07;33.07;;;;;;;1.61;89.11;99445.95;494049;1141;65130;-68
2021/01/04 15:01:54;;;;;;;60.77;31.00;;;;;;;1.59;88.83;99426.18;493894;1142;65452;-62
2021/01/04 15:11:58;;;;;;;72.08;36.05;;;;;;;1.61;89.45;99433.02;485426;1142;10001163;-67
2021/01/04 15:22:02;;;;;;;67.00;34.63;;;;;;;1.62;89.24;99441.64;493819;1142;65507;-65
2021/01/04 15:32:06;;;;;;;67.50;36.00;;;;;;;1.67;89.56;99458.73;493493;1141;65133;-62
2021/01/04 15:42:11;;;;;;;56.83;29.77;;;;;;;1.62;89.31;99449.41;493378;1141;65121;-62
2021/01/04 15:52:15;;;;;;;58.97;28.27;;;;;;;1.56;89.49;99453.02;493125;1141;65121;-64
2021/01/04 16:02:19;;;;;;;52.30;27.35;;;;;;;1.51;89.25;99426.41;494335;1141;65149;-62
2021/01/04 16:12:23;;;;;;;52.10;28.70;;;;;;;1.52;89.54;99426.38;493752;1141;65159;-62
2021/01/04 16:22:30;;;;;;;59.00;27.50;;;;;;;1.52;89.22;99428.97;493496;1141;65567;-60
2021/01/04 16:32:33;;;;;;;49.30;27.77;;;;;;;1.51;89.50;99426.41;493747;1141;65409;-61
2021/01/04 16:42:38;;;;;;;58.10;28.20;;;;;;;1.59;89.58;99437.39;493721;1141;66087;-56
2021/01/04 16:52:43;;;;;;;54.20;25.83;;;;;;;1.57;89.48;99449.54;493203;1141;65567;-65
2021/01/04 17:02:47;;;;;;;52.60;26.30;;;;;;;1.54;89.73;99442.70;496246;1141;65675;-65
2021/01/04 17:12:51;;;;;;;64.43;29.37;;;;;;;1.58;89.95;99447.78;493668;1141;65239;-66
2021/01/04 17:22:55;;;;;;;76.37;37.63;;;;;;;1.59;90.01;99436.53;493806;1141;65200;-67
2021/01/04 17:33:00;;;;;;;65.00;31.05;;;;;;;1.54;89.78;99450.47;493683;1141;65558;-65
2021/01/04 17:43:05;;;;;;;60.40;27.93;;;;;;;1.60;89.75;99449.44;493466;1141;65139;-65
2021/01/04 17:53:10;;;;;;;54.63;29.40;;;;;;;1.56;89.96;99450.44;492912;1141;65108;-64
2021/01/04 18:03:14;;;;;;;65.83;34.13;;;;;;;1.56;90.04;99447.84;493436;1141;65102;-63
2021/01/04 18:13:18;;;;;;;74.45;36.20;;;;;;;1.58;89.84;99447.78;493634;1141;65142;-67
2021/01/04 18:23:22;;;;;;;68.23;32.80;;;;;;;1.57;89.99;99452.13;493950;1141;65143;-65
2021/01/04 18:33:26;;;;;;;71.77;34.53;;;;;;;1.62;90.16;99449.41;493207;1141;65210;-65
2021/01/04 18:43:30;;;;;;;74.47;37.10;;;;;;;1.63;89.97;99456.27;493696;1141;65446;-66
2021/01/04 18:53:34;;;;;;;62.55;33.20;;;;;;;1.60;90.02;99458.92;494021;1142;65553;-63
2021/01/04 19:03:38;;;;;;;57.03;28.70;;;;;;;1.64;90.25;99470.91;493398;1142;65143;-65
2021/01/04 19:13:42;;;;;;;56.20;28.20;;;;;;;1.65;89.83;99477.78;493409;1142;65178;-67
2021/01/04 19:23:46;;;;;;;48.67;25.27;;;;;;;1.64;90.16;99476.92;493500;1142;65800;-70
2021/01/04 19:33:50;;;;;;;56.00;31.60;;;;;;;1.71;90.22;99467.23;493858;1142;65194;-63
2021/01/04 19:43:56;;;;;;;52.37;28.23;;;;;;;1.76;90.14;99473.13;493577;1142;65153;-64
2021/01/04 19:54:00;;;;;;;49.00;27.17;;;;;;;1.81;90.13;99465.23;494169;1142;65521;-63
2021/01/04 20:04:05;;;;;;;53.47;29.10;;;;;;;1.85;90.22;99460.78;493713;1143;65130;-64
2021/01/04 20:14:10;;;;;;;62.40;32.67;;;;;;;1.86;90.11;99454.73;494029;1141;65239;-69
2021/01/04 20:24:16;;;;;;;59.10;32.75;;;;;;;1.93;90.15;99438.10;493663;1141;65256;-69
2021/01/04 20:34:22;;;;;;;51.80;29.07;;;;;;;2.02;90.29;99431.78;493603;1141;65676;-67
2021/01/04 20:44:27;;;;;;;58.77;31.87;;;;;;;2.04;89.97;99430.02;493644;1141;65657;-67
2021/01/04 20:54:31;;;;;;;50.27;27.93;;;;;;;2.01;90.02;99420.59;493360;1141;65201;-62
2021/01/04 21:04:35;;;;;;;46.15;25.90;;;;;;;1.99;89.95;99424.11;493601;1141;65174;-67
2021/01/04 21:14:40;;;;;;;48.50;28.95;;;;;;;1.95;89.96;99418.18;494005;1141;65205;-65
2021/01/04 21:24:43;;;;;;;46.93;25.77;;;;;;;1.95;90.02;99423.36;493908;1141;65472;-65
2021/01/04 21:34:47;;;;;;;49.20;25.73;;;;;;;1.96;90.21;99423.32;493567;1141;65124;-67
2021/01/04 21:44:54;;;;;;;47.55;24.70;;;;;;;1.98;90.04;99415.52;494094;1141;65111;-63
2021/01/04 21:54:57;;;;;;;45.55;22.30;;;;;;;1.98;90.03;99412.92;493108;1141;65150;-66
2021/01/04 22:05:01;;;;;;;40.33;22.37;;;;;;;1.90;90.01;99409.72;493949;1141;65097;-62
2021/01/04 22:15:08;;;;;;;35.87;19.93;;;;;;;1.81;89.78;99397.92;493916;1141;66375;-64
2021/01/04 22:25:13;;;;;;;34.57;18.10;;;;;;;1.79;89.70;99395.36;494051;1141;65098;-63
2021/01/04 22:35:17;;;;;;;35.60;19.00;;;;;;;1.79;89.96;99395.36;493984;1141;66335;-64
2021/01/04 22:45:23;;;;;;;36.83;19.80;;;;;;;1.73;89.68;99384.35;493675;1141;65555;-65
2021/01/04 22:55:27;;;;;;;31.80;17.30;;;;;;;1.75;89.83;99379.97;493688;1141;65230;-61
2021/01/04 23:05:31;;;;;;;39.33;23.40;;;;;;;1.80;90.29;99378.93;494022;1142;65190;-66
2021/01/04 23:15:36;;;;;;;33.17;20.37;;;;;;;1.81;90.00;99357.32;493720;1142;65228;-63
2021/01/04 23:25:41;;;;;;;38.43;22.30;;;;;;;1.84;90.08;99360.70;493832;1142;65124;-65
2021/01/04 23:35:45;;;;;;;37.43;23.03;;;;;;;1.84;89.79;99350.34;494073;1143;65200;-64
2021/01/04 23:45:49;;;;;;;35.67;20.73;;;;;;;1.84;90.03;99350.34;493975;1143;65184;-64
2021/01/04 23:55:53;;;;;;;37.33;22.20;;;;;;;1.82;90.24;99343.48;493810;1141;65092;-64
